createdAt,value
2023-05-21T00:00:47.203Z,19.91
2023-05-21T00:03:33.975Z,19.83
2023-05-21T00:06:21.262Z,19.80
2023-05-21T00:09:08.092Z,19.82
2023-05-21T00:11:54.287Z,19.73
2023-05-21T00:14:40.021Z,19.69
2023-05-21T00:17:26.293Z,19.75
2023-05-21T00:20:13.093Z,19.61
2023-05-21T00:23:05.353Z,19.66
2023-05-21T00:25:53.728Z,19.66
2023-05-21T00:28:39.804Z,19.56
2023-05-21T00:31:25.792Z,19.56
2023-05-21T00:34:13.867Z,19.56
2023-05-21T00:36:59.595Z,19.53
2023-05-21T00:39:45.656Z,19.45
2023-05-21T00:42:31.650Z,19.42
2023-05-21T00:45:18.284Z,19.35
2023-05-21T00:48:05.143Z,19.32
2023-05-21T00:50:51.079Z,19.30
2023-05-21T00:53:37.128Z,19.27
2023-05-21T00:56:24.236Z,19.23
2023-05-21T00:59:10.550Z,19.20
2023-05-21T01:01:57.356Z,19.12
2023-05-21T01:04:43.425Z,19.05
2023-05-21T01:07:29.487Z,19.00
2023-05-21T01:10:15.470Z,18.97
2023-05-21T01:13:01.662Z,18.90
2023-05-21T01:15:47.958Z,18.86
2023-05-21T01:18:44.452Z,18.82
2023-05-21T01:21:31.382Z,18.77
2023-05-21T01:24:18.199Z,18.69
2023-05-21T01:27:07.717Z,18.68
2023-05-21T01:29:53.994Z,18.64
2023-05-21T01:32:49.967Z,18.56
2023-05-21T01:36:24.490Z,18.46
2023-05-21T01:39:16.994Z,18.50
2023-05-21T01:42:04.379Z,18.51
2023-05-21T01:44:55.588Z,18.40
2023-05-21T01:47:42.463Z,18.41
2023-05-21T01:50:29.348Z,18.43
2023-05-21T01:53:15.926Z,18.42
2023-05-21T01:56:02.956Z,18.41
2023-05-21T01:58:50.266Z,18.36
2023-05-21T02:01:36.595Z,18.39
2023-05-21T02:04:22.773Z,18.36
2023-05-21T02:07:10.341Z,18.38
2023-05-21T02:09:56.564Z,18.35
2023-05-21T02:12:43.352Z,18.36
2023-05-21T02:16:01.839Z,18.32
2023-05-21T02:18:51.585Z,18.31
2023-05-21T02:21:37.743Z,18.29
2023-05-21T02:24:24.590Z,18.26
2023-05-21T02:27:10.743Z,18.31
2023-05-21T02:29:56.844Z,18.30
2023-05-21T02:32:43.839Z,18.21
2023-05-21T02:35:30.042Z,18.19
2023-05-21T02:38:19.584Z,18.22
2023-05-21T02:41:05.872Z,18.18
2023-05-21T02:43:51.779Z,18.18
2023-05-21T02:46:38.742Z,18.16
2023-05-21T02:49:26.171Z,18.15
2023-05-21T02:52:12.336Z,18.17
2023-05-21T02:54:59.568Z,18.15
2023-05-21T02:57:45.620Z,18.16
2023-05-21T03:00:31.766Z,18.15
2023-05-21T03:03:19.660Z,18.15
2023-05-21T03:06:05.930Z,18.16
2023-05-21T03:08:51.780Z,18.13
2023-05-21T03:11:40.437Z,18.10
2023-05-21T03:14:26.587Z,18.09
2023-05-21T03:17:14.208Z,18.10
2023-05-21T03:20:00.615Z,18.07
2023-05-21T03:22:46.772Z,18.15
2023-05-21T03:25:33.064Z,18.14
2023-05-21T03:28:19.331Z,18.17
2023-05-21T03:31:07.391Z,18.12
2023-05-21T03:34:12.460Z,18.16
2023-05-21T03:36:58.220Z,18.19
2023-05-21T03:39:45.965Z,18.19
2023-05-21T03:42:32.068Z,18.22
2023-05-21T03:45:18.288Z,18.17
2023-05-21T03:48:19.985Z,18.24
2023-05-21T03:51:11.010Z,18.19
2023-05-21T03:54:01.567Z,18.19
2023-05-21T03:56:47.711Z,18.18
2023-05-21T03:59:33.969Z,18.23
2023-05-21T04:02:22.283Z,18.19
2023-05-21T04:05:09.575Z,18.15
2023-05-21T04:08:22.016Z,18.22
2023-05-21T04:11:07.908Z,18.25
2023-05-21T04:13:55.826Z,18.23
2023-05-21T04:16:45.162Z,18.23
2023-05-21T04:19:34.185Z,18.19
2023-05-21T04:22:23.616Z,18.19
2023-05-21T04:28:31.882Z,18.19
2023-05-21T04:31:17.946Z,18.33
2023-05-21T04:34:04.386Z,18.36
2023-05-21T04:36:52.167Z,18.36
2023-05-21T04:39:38.522Z,18.38
2023-05-21T04:42:24.824Z,18.42
2023-05-21T04:45:11.991Z,18.42
2023-05-21T04:48:00.907Z,18.39
2023-05-21T04:50:48.728Z,18.37
2023-05-21T04:53:36.042Z,18.42
2023-05-21T04:56:26.659Z,18.39
2023-05-21T04:59:13.099Z,18.40
2023-05-21T05:01:59.291Z,18.42
2023-05-21T05:04:45.464Z,18.45
2023-05-21T05:07:31.746Z,18.47
2023-05-21T05:10:17.722Z,18.49
2023-05-21T05:13:04.047Z,18.52
2023-05-21T05:15:51.488Z,18.52
2023-05-21T05:18:44.332Z,18.57
2023-05-21T05:21:31.879Z,18.62
2023-05-21T05:24:18.979Z,18.66
2023-05-21T05:27:05.871Z,18.70
2023-05-21T05:29:52.139Z,18.75
2023-05-21T05:32:38.389Z,18.73
2023-05-21T05:35:24.431Z,18.80
2023-05-21T05:38:10.618Z,18.87
2023-05-21T05:40:56.639Z,18.88
2023-05-21T05:43:42.608Z,18.91
2023-05-21T05:46:29.570Z,18.95
2023-05-21T05:49:17.032Z,18.94
2023-05-21T05:52:03.710Z,19.03
2023-05-21T05:54:49.809Z,19.04
2023-05-21T05:57:36.102Z,19.05
2023-05-21T06:00:27.438Z,19.07
2023-05-21T06:03:20.195Z,19.04
2023-05-21T06:06:12.221Z,19.06
2023-05-21T06:08:58.747Z,19.06
2023-05-21T06:11:44.938Z,19.07
2023-05-21T06:14:31.092Z,19.07
2023-05-21T06:17:17.508Z,19.04
2023-05-21T06:20:04.336Z,19.10
2023-05-21T06:22:50.194Z,19.08
2023-05-21T06:25:38.353Z,19.12
2023-05-21T06:28:25.151Z,19.12
2023-05-21T06:31:44.160Z,19.18
2023-05-21T06:34:30.182Z,19.18
2023-05-21T06:37:20.118Z,19.27
2023-05-21T06:40:07.600Z,19.29
2023-05-21T06:42:53.819Z,19.32
2023-05-21T06:45:58.248Z,19.38
2023-05-21T06:48:56.148Z,19.41
2023-05-21T06:51:42.271Z,19.43
2023-05-21T06:54:30.165Z,19.51
2023-05-21T06:57:16.631Z,19.44
2023-05-21T07:00:03.149Z,19.55
2023-05-21T07:02:52.062Z,19.58
2023-05-21T07:05:38.807Z,19.59
2023-05-21T07:08:25.214Z,19.65
2023-05-21T07:11:11.161Z,19.72
2023-05-21T07:13:58.743Z,19.78
2023-05-21T07:16:45.156Z,19.83
2023-05-21T07:19:32.571Z,19.85
2023-05-21T07:22:19.248Z,19.88
2023-05-21T07:25:07.295Z,20.05
2023-05-21T07:27:53.403Z,20.10
2023-05-21T07:30:39.707Z,20.20
2023-05-21T07:33:29.949Z,20.21
2023-05-21T07:36:16.984Z,20.40
2023-05-21T07:39:04.281Z,20.43
2023-05-21T07:41:51.487Z,20.54
2023-05-21T07:44:37.802Z,20.57
2023-05-21T07:47:23.945Z,20.67
2023-05-21T07:50:11.663Z,20.80
2023-05-21T07:53:05.283Z,20.90
2023-05-21T07:55:54.065Z,20.97
2023-05-21T07:58:48.084Z,21.05
2023-05-21T08:01:37.717Z,21.16
2023-05-21T08:04:24.622Z,21.26
2023-05-21T08:07:13.090Z,21.33
2023-05-21T08:10:00.243Z,21.46
2023-05-21T08:12:48.245Z,21.42
2023-05-21T08:15:35.354Z,21.58
2023-05-21T08:18:24.216Z,21.66
2023-05-21T08:21:13.386Z,21.73
2023-05-21T08:24:00.770Z,21.74
2023-05-21T08:26:49.896Z,21.83
2023-05-21T08:29:38.424Z,21.87
2023-05-21T08:32:27.289Z,21.89
2023-05-21T08:35:14.350Z,21.92
2023-05-21T08:38:19.847Z,21.97
2023-05-21T08:41:27.156Z,22.04
2023-05-21T08:44:16.795Z,22.10
2023-05-21T08:47:08.685Z,22.15
2023-05-21T08:49:55.542Z,22.14
2023-05-21T08:52:42.785Z,22.14
2023-05-21T08:55:29.921Z,22.20
2023-05-21T08:58:16.785Z,22.25
2023-05-21T09:01:04.988Z,22.25
2023-05-21T09:03:59.071Z,22.29
2023-05-21T09:06:52.351Z,22.30
2023-05-21T09:10:05.504Z,22.30
2023-05-21T09:12:52.526Z,22.30
2023-05-21T09:15:39.547Z,22.29
2023-05-21T09:18:28.076Z,22.40
2023-05-21T09:21:28.076Z,22.47
2023-05-21T09:24:32.497Z,22.51
2023-05-21T09:27:20.319Z,22.57
2023-05-21T09:30:14.716Z,22.61
2023-05-21T09:33:02.071Z,22.69
2023-05-21T09:35:48.975Z,22.75
2023-05-21T09:38:36.155Z,22.79
2023-05-21T09:41:33.638Z,22.89
2023-05-21T09:44:20.953Z,22.93
2023-05-21T09:47:10.319Z,23.05
2023-05-21T09:50:01.318Z,23.11
2023-05-21T09:52:50.607Z,23.18
2023-05-21T09:55:37.265Z,23.21
2023-05-21T09:58:24.014Z,23.32
2023-05-21T10:01:11.620Z,23.42
2023-05-21T10:03:59.299Z,23.45
2023-05-21T10:06:48.052Z,23.57
2023-05-21T10:09:34.733Z,23.63
2023-05-21T10:12:24.261Z,23.71
2023-05-21T10:15:17.729Z,23.81
2023-05-21T10:18:07.041Z,23.84
2023-05-21T10:20:54.212Z,23.95
2023-05-21T10:23:42.041Z,23.94
2023-05-21T10:26:28.862Z,23.95
2023-05-21T10:29:18.172Z,23.93
2023-05-21T10:32:06.834Z,24.02
2023-05-21T10:34:59.386Z,24.06
2023-05-21T10:37:47.834Z,24.09
2023-05-21T10:40:36.448Z,24.07
2023-05-21T10:43:43.747Z,24.15
2023-05-21T10:47:00.843Z,24.15
2023-05-21T10:50:08.618Z,24.20
2023-05-21T10:53:25.666Z,24.18
2023-05-21T10:56:18.105Z,24.31
2023-05-21T10:59:22.186Z,24.36
2023-05-21T11:02:10.059Z,24.33
2023-05-21T11:05:04.195Z,24.39
2023-05-21T11:07:52.887Z,24.44
2023-05-21T11:10:40.883Z,24.48
2023-05-21T11:13:28.689Z,24.50
2023-05-21T11:16:16.107Z,24.57
2023-05-21T11:19:03.036Z,24.56
2023-05-21T11:21:52.036Z,24.65
2023-05-21T11:24:39.860Z,24.66
2023-05-21T11:27:38.061Z,24.65
2023-05-21T11:30:24.198Z,24.68
2023-05-21T11:33:11.423Z,24.75
2023-05-21T11:36:00.611Z,24.81
2023-05-21T11:39:15.334Z,24.87
2023-05-21T11:42:04.447Z,24.89
2023-05-21T11:44:50.820Z,24.93
2023-05-21T11:47:36.969Z,24.92
2023-05-21T11:50:23.528Z,24.98
2023-05-21T11:53:12.284Z,25.06
2023-05-21T11:55:59.906Z,25.16
2023-05-21T11:58:46.816Z,25.29
2023-05-21T12:01:32.709Z,25.44
2023-05-21T12:04:18.546Z,25.51
2023-05-21T12:07:08.188Z,25.55
2023-05-21T12:09:54.727Z,25.64
2023-05-21T12:12:54.005Z,25.81
2023-05-21T12:15:41.982Z,25.95
2023-05-21T12:18:28.320Z,26.07
2023-05-21T12:21:14.418Z,26.20
2023-05-21T12:24:03.520Z,26.37
2023-05-21T12:26:50.100Z,26.44
2023-05-21T12:29:38.384Z,26.58
2023-05-21T12:32:27.809Z,26.63
2023-05-21T12:35:24.376Z,26.68
2023-05-21T12:38:10.729Z,26.66
2023-05-21T12:41:03.503Z,26.62
2023-05-21T12:43:50.877Z,26.51
2023-05-21T12:46:37.266Z,26.53
2023-05-21T12:49:37.910Z,26.48
2023-05-21T12:52:24.608Z,26.35
2023-05-21T12:55:13.748Z,26.32
2023-05-21T12:58:08.418Z,26.32
2023-05-21T13:00:56.611Z,26.28
2023-05-21T13:03:43.267Z,26.26
2023-05-21T13:06:29.322Z,26.23
2023-05-21T13:09:15.760Z,26.23
2023-05-21T13:12:01.600Z,26.18
2023-05-21T13:14:47.976Z,26.13
2023-05-21T13:17:37.025Z,26.11
2023-05-21T13:20:26.606Z,26.09
2023-05-21T13:23:12.578Z,25.99
2023-05-21T13:25:58.720Z,25.94
2023-05-21T13:28:44.644Z,25.96
2023-05-21T13:31:30.463Z,25.93
2023-05-21T13:34:16.414Z,25.89
2023-05-21T13:37:02.634Z,25.86
2023-05-21T13:39:48.411Z,25.89
2023-05-21T13:42:35.307Z,25.86
2023-05-21T13:45:29.143Z,25.82
2023-05-21T13:48:15.226Z,25.80
2023-05-21T13:51:00.974Z,25.75
2023-05-21T13:53:46.777Z,25.77
2023-05-21T13:56:33.959Z,25.83
2023-05-21T13:59:19.767Z,26.04
2023-05-21T14:02:06.275Z,26.20
2023-05-21T14:04:52.511Z,26.23
2023-05-21T14:07:40.359Z,26.24
2023-05-21T14:10:26.588Z,26.15
2023-05-21T14:13:19.685Z,26.10
2023-05-21T14:16:07.732Z,26.00
2023-05-21T14:18:54.857Z,25.95
2023-05-21T14:21:41.122Z,25.86
2023-05-21T14:24:27.127Z,25.75
2023-05-21T14:27:15.244Z,25.68
2023-05-21T14:30:01.387Z,25.64
2023-05-21T14:32:47.935Z,25.68
2023-05-21T14:35:34.133Z,25.76
2023-05-21T14:38:19.955Z,25.81
2023-05-21T14:41:07.242Z,25.89
2023-05-21T14:43:53.467Z,25.94
2023-05-21T14:46:39.820Z,25.95
2023-05-21T14:49:26.018Z,26.04
2023-05-21T14:52:11.854Z,26.10
2023-05-21T14:54:57.981Z,26.17
2023-05-21T14:57:44.059Z,26.27
2023-05-21T15:00:31.195Z,26.52
2023-05-21T15:03:17.608Z,26.85
2023-05-21T15:06:03.894Z,26.99
2023-05-21T15:08:49.876Z,27.15
2023-05-21T15:11:36.097Z,27.20
2023-05-21T15:14:21.873Z,27.28
2023-05-21T15:17:07.921Z,27.22
2023-05-21T15:19:53.829Z,27.23
2023-05-21T15:22:40.456Z,27.11
2023-05-21T15:25:27.595Z,27.03
2023-05-21T15:28:13.580Z,26.90
2023-05-21T15:31:00.963Z,26.84
2023-05-21T15:33:46.825Z,26.76
2023-05-21T15:36:32.609Z,26.65
2023-05-21T15:39:18.470Z,26.47
2023-05-21T15:42:05.274Z,26.37
2023-05-21T15:44:51.156Z,26.20
2023-05-21T15:47:36.978Z,26.09
2023-05-21T15:50:22.780Z,25.96
2023-05-21T15:53:11.060Z,25.89
2023-05-21T15:55:57.215Z,25.78
2023-05-21T15:58:43.017Z,25.68
2023-05-21T16:01:30.035Z,25.54
2023-05-21T16:04:17.764Z,25.48
2023-05-21T16:07:04.275Z,25.38
2023-05-21T16:09:50.101Z,25.37
2023-05-21T16:12:36.206Z,25.29
2023-05-21T16:15:22.263Z,25.20
2023-05-21T16:18:09.966Z,25.14
2023-05-21T16:20:56.697Z,25.04
2023-05-21T16:23:42.739Z,24.97
2023-05-21T16:26:28.809Z,24.90
2023-05-21T16:29:15.129Z,24.83
2023-05-21T16:32:01.402Z,24.83
2023-05-21T16:34:47.596Z,24.76
2023-05-21T16:37:53.950Z,24.51
2023-05-21T16:40:42.813Z,24.67
2023-05-21T16:43:29.021Z,24.66
2023-05-21T16:46:24.211Z,24.60
2023-05-21T16:49:10.338Z,24.58
2023-05-21T16:51:56.515Z,24.53
2023-05-21T16:54:44.756Z,24.48
2023-05-21T16:57:31.694Z,24.43
2023-05-21T17:00:17.659Z,24.42
2023-05-21T17:03:04.225Z,24.33
2023-05-21T17:05:58.676Z,24.32
2023-05-21T17:08:44.922Z,24.26
2023-05-21T17:11:31.003Z,24.25
2023-05-21T17:14:32.635Z,24.23
2023-05-21T17:17:19.794Z,24.19
2023-05-21T17:20:07.885Z,24.12
2023-05-21T17:26:11.250Z,24.00
2023-05-21T17:28:57.177Z,24.04
2023-05-21T17:31:43.486Z,24.05
2023-05-21T17:34:30.453Z,23.93
2023-05-21T17:37:16.442Z,23.97
2023-05-21T17:40:02.707Z,23.97
2023-05-21T17:42:48.864Z,23.93
2023-05-21T17:45:36.322Z,23.92
2023-05-21T17:48:23.976Z,23.91
2023-05-21T17:51:10.308Z,23.87
2023-05-21T17:53:56.528Z,23.84
2023-05-21T17:56:44.197Z,23.79
2023-05-21T17:59:32.032Z,23.79
2023-05-21T18:02:18.233Z,23.75
2023-05-21T18:05:04.523Z,23.70
2023-05-21T18:07:50.713Z,23.70
2023-05-21T18:10:37.778Z,23.64
2023-05-21T18:13:23.978Z,23.57
2023-05-21T18:16:10.052Z,23.58
2023-05-21T18:18:56.536Z,23.55
2023-05-21T18:21:42.635Z,23.50
2023-05-21T18:24:28.637Z,23.45
2023-05-21T18:27:15.502Z,23.39
2023-05-21T18:30:05.155Z,23.33
2023-05-21T18:32:51.324Z,23.30
2023-05-21T18:35:37.178Z,23.23
2023-05-21T18:38:23.572Z,23.14
2023-05-21T18:41:09.442Z,23.13
2023-05-21T18:43:55.486Z,23.07
2023-05-21T18:46:42.434Z,23.03
2023-05-21T18:49:33.896Z,22.99
2023-05-21T18:52:19.845Z,22.98
2023-05-21T18:55:06.804Z,22.96
2023-05-21T18:57:52.870Z,22.92
2023-05-21T19:00:39.904Z,22.90
2023-05-21T19:03:26.742Z,22.87
2023-05-21T19:06:13.202Z,22.83
2023-05-21T19:09:00.041Z,22.75
2023-05-21T19:11:46.329Z,22.81
2023-05-21T19:14:32.578Z,22.79
2023-05-21T19:17:18.706Z,22.79
2023-05-21T19:20:05.522Z,22.76
2023-05-21T19:22:51.556Z,22.75
2023-05-21T19:25:38.772Z,22.73
2023-05-21T19:28:24.829Z,22.76
2023-05-21T19:31:11.005Z,22.74
2023-05-21T19:33:57.061Z,22.73
2023-05-21T19:36:52.974Z,22.70
2023-05-21T19:39:41.748Z,22.72
2023-05-21T19:42:27.921Z,22.71
2023-05-21T19:45:15.754Z,22.71
2023-05-21T19:48:02.242Z,22.70
2023-05-21T19:50:48.156Z,22.63
2023-05-21T19:53:35.029Z,22.67
2023-05-21T19:56:22.516Z,22.65
2023-05-21T19:59:09.012Z,22.63
2023-05-21T20:01:55.640Z,22.61
2023-05-21T20:04:42.026Z,22.54
2023-05-21T20:07:28.550Z,22.56
2023-05-21T20:10:14.933Z,22.50
2023-05-21T20:13:01.133Z,22.51
2023-05-21T20:15:50.472Z,22.50
2023-05-21T20:18:39.526Z,22.45
2023-05-21T20:21:28.447Z,22.45
2023-05-21T20:24:15.417Z,22.43
2023-05-21T20:27:03.393Z,22.37
2023-05-21T20:29:49.891Z,22.32
2023-05-21T20:32:36.481Z,22.29
2023-05-21T20:35:22.833Z,22.26
2023-05-21T20:38:09.014Z,22.24
2023-05-21T20:40:55.704Z,22.20
2023-05-21T20:43:45.518Z,22.12
2023-05-21T20:46:38.410Z,22.10
2023-05-21T20:49:25.854Z,22.09
2023-05-21T20:52:12.306Z,22.03
2023-05-21T20:54:59.680Z,21.92
2023-05-21T20:57:45.746Z,21.88
2023-05-21T21:00:33.491Z,21.84
2023-05-21T21:03:21.965Z,21.71
2023-05-21T21:06:09.941Z,21.65
2023-05-21T21:08:56.185Z,21.55
2023-05-21T21:11:42.092Z,21.51
2023-05-21T21:14:32.082Z,21.44
2023-05-21T21:17:18.374Z,21.32
2023-05-21T21:20:07.535Z,21.27
2023-05-21T21:22:53.389Z,21.16
2023-05-21T21:25:39.909Z,21.13
2023-05-21T21:28:26.175Z,21.07
2023-05-21T21:31:13.666Z,21.00
2023-05-21T21:33:59.517Z,20.99
2023-05-21T21:36:45.935Z,20.96
2023-05-21T21:39:31.741Z,20.90
2023-05-21T21:42:17.773Z,20.89
2023-05-21T21:45:04.816Z,20.86
2023-05-21T21:47:50.755Z,20.81
2023-05-21T21:50:37.478Z,20.79
2023-05-21T21:53:23.845Z,20.69
2023-05-21T21:56:09.709Z,20.68
2023-05-21T21:58:55.921Z,20.65
2023-05-21T22:01:42.990Z,20.65
2023-05-21T22:04:29.195Z,20.62
2023-05-21T22:07:17.943Z,20.61
2023-05-21T22:10:04.600Z,20.58
2023-05-21T22:12:50.364Z,20.48
2023-05-21T22:15:36.304Z,20.46
2023-05-21T22:18:38.826Z,20.45
2023-05-21T22:21:29.488Z,20.41
2023-05-21T22:24:30.965Z,20.43
2023-05-21T22:27:18.176Z,20.38
2023-05-21T22:30:05.223Z,20.42
2023-05-21T22:32:51.117Z,20.43
2023-05-21T22:35:37.023Z,20.41
2023-05-21T22:38:22.906Z,20.36
2023-05-21T22:41:10.724Z,20.41
2023-05-21T22:43:56.974Z,20.40
2023-05-21T22:46:43.957Z,20.33
2023-05-21T22:49:32.780Z,20.31
2023-05-21T22:52:21.723Z,20.30
2023-05-21T22:55:11.381Z,20.29
2023-05-21T22:57:57.374Z,20.31
2023-05-21T23:00:44.260Z,20.31
2023-05-21T23:03:30.458Z,20.32
2023-05-21T23:06:16.469Z,20.32
2023-05-21T23:09:02.077Z,20.30
2023-05-21T23:11:47.940Z,20.28
2023-05-21T23:14:33.855Z,20.29
2023-05-21T23:17:19.754Z,20.21
2023-05-21T23:20:09.459Z,20.25
2023-05-21T23:22:55.584Z,20.25
2023-05-21T23:25:41.626Z,20.28
2023-05-21T23:28:27.722Z,20.26
2023-05-21T23:31:13.783Z,20.25
2023-05-21T23:33:59.641Z,20.23
2023-05-21T23:36:45.769Z,20.21
2023-05-21T23:39:31.494Z,20.19
2023-05-21T23:42:17.608Z,20.20
2023-05-21T23:45:04.148Z,20.16
2023-05-21T23:47:50.295Z,20.15
2023-05-21T23:50:36.762Z,20.13
2023-05-21T23:53:22.880Z,20.08
2023-05-21T23:56:08.718Z,20.05
2023-05-21T23:58:54.881Z,20.03
